Terminal Aerodrome Forecast
Issued by NWS

Home | Current Version | Previous Version | Text Only | Print | Product List | Glossary On
Versions: 1 2 3 4 5 6 7 8 9 10 11 12 13 14
199
FTUS42 KMLB 300539
TAFTIX
TAF
KTIX 300539Z 3006/3106 19006KT P6SM SCT250
     FM301400 25004KT P6SM SCT030 BKN250
     FM301700 09010KT P6SM SCT040 BKN250
     FM302200 12010KT P6SM VCTS SCT050CB BKN070 BKN250
     FM310200 16005KT P6SM BKN080 BKN250
      AMD NOT SKED TIL 301100=

USA.gov is the U.S. government's official web portal to all federal, state and local government web resources and services.